sensor_id;sensor_type;location;lat;lon;timestamp;pressure;altitude;pressure_sealevel;temperature;humidity
6020;BME280;3038;51.122;6.840;2023-04-19T00:00:18;102234.94;;;11.64;67.56
6020;BME280;3038;51.122;6.840;2023-04-19T00:02:45;102241.25;;;11.63;67.80
6020;BME280;3038;51.122;6.840;2023-04-19T00:05:13;102239.81;;;11.59;67.83
6020;BME280;3038;51.122;6.840;2023-04-19T00:07:40;102246.34;;;11.55;67.92
6020;BME280;3038;51.122;6.840;2023-04-19T00:10:06;102236.53;;;11.55;67.66
6020;BME280;3038;51.122;6.840;2023-04-19T00:12:31;102242.75;;;11.56;68.09
6020;BME280;3038;51.122;6.840;2023-04-19T00:14:57;102242.47;;;11.59;67.57
6020;BME280;3038;51.122;6.840;2023-04-19T00:17:22;102238.13;;;11.58;67.84
6020;BME280;3038;51.122;6.840;2023-04-19T00:19:50;102238.81;;;11.60;67.65
6020;BME280;3038;51.122;6.840;2023-04-19T00:22:16;102239.81;;;11.59;68.26
6020;BME280;3038;51.122;6.840;2023-04-19T00:24:41;102233.25;;;11.63;68.03
6020;BME280;3038;51.122;6.840;2023-04-19T00:27:07;102232.56;;;11.61;68.20
6020;BME280;3038;51.122;6.840;2023-04-19T00:29:32;102225.66;;;11.58;68.51
6020;BME280;3038;51.122;6.840;2023-04-19T00:31:57;102237.16;;;11.59;68.11
6020;BME280;3038;51.122;6.840;2023-04-19T00:34:23;102240.66;;;11.59;67.91
6020;BME280;3038;51.122;6.840;2023-04-19T00:36:48;102228.19;;;11.60;68.22
6020;BME280;3038;51.122;6.840;2023-04-19T00:39:13;102233.25;;;11.63;67.74
6020;BME280;3038;51.122;6.840;2023-04-19T00:41:39;102227.78;;;11.65;68.11
6020;BME280;3038;51.122;6.840;2023-04-19T00:44:04;102232.16;;;11.66;68.14
6020;BME280;3038;51.122;6.840;2023-04-19T00:46:30;102231.19;;;11.67;68.25
6020;BME280;3038;51.122;6.840;2023-04-19T00:48:57;102236.06;;;11.62;68.60
6020;BME280;3038;51.122;6.840;2023-04-19T00:51:22;102226.50;;;11.59;68.20
6020;BME280;3038;51.122;6.840;2023-04-19T00:53:50;102227.22;;;11.61;68.64
6020;BME280;3038;51.122;6.840;2023-04-19T00:56:17;102224.28;;;11.64;68.28
6020;BME280;3038;51.122;6.840;2023-04-19T00:58:43;102225.28;;;11.63;68.43
6020;BME280;3038;51.122;6.840;2023-04-19T01:01:09;102223.53;;;11.52;68.55
6020;BME280;3038;51.122;6.840;2023-04-19T01:03:35;102217.38;;;11.52;69.01
6020;BME280;3038;51.122;6.840;2023-04-19T01:06:01;102216.63;;;11.50;69.07
6020;BME280;3038;51.122;6.840;2023-04-19T01:08:26;102215.69;;;11.51;68.83
6020;BME280;3038;51.122;6.840;2023-04-19T01:10:51;102209.94;;;11.55;68.59
6020;BME280;3038;51.122;6.840;2023-04-19T01:13:17;102210.53;;;11.59;68.76
6020;BME280;3038;51.122;6.840;2023-04-19T01:15:42;102211.78;;;11.55;68.92
6020;BME280;3038;51.122;6.840;2023-04-19T01:18:10;102211.31;;;11.50;69.27
6020;BME280;3038;51.122;6.840;2023-04-19T01:20:36;102206.84;;;11.50;69.34
6020;BME280;3038;51.122;6.840;2023-04-19T01:23:01;102206.84;;;11.50;69.04
6020;BME280;3038;51.122;6.840;2023-04-19T01:25:26;102211.31;;;11.50;69.26
6020;BME280;3038;51.122;6.840;2023-04-19T01:27:52;102205.16;;;11.49;69.52
6020;BME280;3038;51.122;6.840;2023-04-19T01:30:17;102205.44;;;11.46;69.79
6020;BME280;3038;51.122;6.840;2023-04-19T01:32:42;102201.19;;;11.44;69.97
6020;BME280;3038;51.122;6.840;2023-04-19T01:35:08;102200.22;;;11.45;69.98
6020;BME280;3038;51.122;6.840;2023-04-19T01:37:35;102201.53;;;11.50;70.20
6020;BME280;3038;51.122;6.840;2023-04-19T01:40:03;102202.38;;;11.51;69.75
6020;BME280;3038;51.122;6.840;2023-04-19T01:42:29;102195.94;;;11.53;69.96
6020;BME280;3038;51.122;6.840;2023-04-19T01:44:54;102193.16;;;11.55;69.79
6020;BME280;3038;51.122;6.840;2023-04-19T01:47:20;102194.28;;;11.52;70.00
6020;BME280;3038;51.122;6.840;2023-04-19T01:49:45;102190.78;;;11.52;70.48
6020;BME280;3038;51.122;6.840;2023-04-19T01:52:11;102191.00;;;11.49;70.67
6020;BME280;3038;51.122;6.840;2023-04-19T01:54:36;102194.50;;;11.49;70.59
6020;BME280;3038;51.122;6.840;2023-04-19T01:57:01;102197.06;;;11.51;70.22
6020;BME280;3038;51.122;6.840;2023-04-19T01:59:27;102196.19;;;11.50;70.96
6020;BME280;3038;51.122;6.840;2023-04-19T02:01:52;102196.94;;;11.52;70.74
6020;BME280;3038;51.122;6.840;2023-04-19T02:04:20;102190.88;;;11.50;70.71
6020;BME280;3038;51.122;6.840;2023-04-19T02:06:51;102186.44;;;11.51;71.08
6020;BME280;3038;51.122;6.840;2023-04-19T02:09:16;102189.34;;;11.48;70.60
6020;BME280;3038;51.122;6.840;2023-04-19T02:11:41;102181.59;;;11.45;71.33
6020;BME280;3038;51.122;6.840;2023-04-19T02:14:07;102174.84;;;11.41;71.52
6020;BME280;3038;51.122;6.840;2023-04-19T02:16:32;102182.13;;;11.39;71.96
6020;BME280;3038;51.122;6.840;2023-04-19T02:18:57;102183.81;;;11.40;71.97
6020;BME280;3038;51.122;6.840;2023-04-19T02:21:23;102180.16;;;11.41;71.84
6020;BME280;3038;51.122;6.840;2023-04-19T02:23:48;102181.88;;;11.42;71.89
6020;BME280;3038;51.122;6.840;2023-04-19T02:26:13;102180.91;;;11.43;71.86
6020;BME280;3038;51.122;6.840;2023-04-19T02:28:39;102184.09;;;11.37;72.59
6020;BME280;3038;51.122;6.840;2023-04-19T02:31:05;102177.06;;;11.36;72.61
6020;BME280;3038;51.122;6.840;2023-04-19T02:33:31;102175.38;;;11.35;72.62
6020;BME280;3038;51.122;6.840;2023-04-19T02:35:56;102179.72;;;11.36;72.74
6020;BME280;3038;51.122;6.840;2023-04-19T02:38:22;102177.06;;;11.36;72.54
6020;BME280;3038;51.122;6.840;2023-04-19T02:40:47;102177.91;;;11.36;72.98
6020;BME280;3038;51.122;6.840;2023-04-19T02:43:12;102177.34;;;11.32;72.57
6020;BME280;3038;51.122;6.840;2023-04-19T02:45:38;102176.34;;;11.33;73.26
6020;BME280;3038;51.122;6.840;2023-04-19T02:48:03;102183.56;;;11.43;73.33
6020;BME280;3038;51.122;6.840;2023-04-19T02:50:29;102181.59;;;11.45;72.96
6020;BME280;3038;51.122;6.840;2023-04-19T02:52:56;102177.13;;;11.45;72.93
6020;BME280;3038;51.122;6.840;2023-04-19T02:55:22;102176.81;;;11.39;73.47
6020;BME280;3038;51.122;6.840;2023-04-19T02:57:47;102183.50;;;11.33;73.77
6020;BME280;3038;51.122;6.840;2023-04-19T03:00:13;102182.66;;;11.32;73.74
6020;BME280;3038;51.122;6.840;2023-04-19T03:02:38;102178.56;;;11.28;73.72
6020;BME280;3038;51.122;6.840;2023-04-19T03:05:04;102170.84;;;11.25;74.29
6020;BME280;3038;51.122;6.840;2023-04-19T03:07:30;102177.50;;;11.20;74.36
6020;BME280;3038;51.122;6.840;2023-04-19T03:09:56;102173.63;;;11.24;74.13
6020;BME280;3038;51.122;6.840;2023-04-19T03:12:21;102174.47;;;11.24;74.24
6020;BME280;3038;51.122;6.840;2023-04-19T03:14:46;102173.50;;;11.25;74.69
6020;BME280;3038;51.122;6.840;2023-04-19T03:17:13;102169.41;;;11.21;74.65
6020;BME280;3038;51.122;6.840;2023-04-19T03:19:38;102172.78;;;11.23;74.60
6020;BME280;3038;51.122;6.840;2023-04-19T03:22:04;102175.16;;;11.26;74.39
6020;BME280;3038;51.122;6.840;2023-04-19T03:24:29;102172.03;;;11.32;74.19
6020;BME280;3038;51.122;6.840;2023-04-19T03:26:58;102165.03;;;11.31;74.19
6020;BME280;3038;51.122;6.840;2023-04-19T03:29:23;102167.69;;;11.31;74.28
6020;BME280;3038;51.122;6.840;2023-04-19T03:31:51;102168.91;;;11.27;73.96
6020;BME280;3038;51.122;6.840;2023-04-19T03:34:16;102161.38;;;11.32;74.25
6020;BME280;3038;51.122;6.840;2023-04-19T03:36:42;102156.84;;;11.23;74.43
6020;BME280;3038;51.122;6.840;2023-04-19T03:39:07;102151.75;;;11.20;74.06
6020;BME280;3038;51.122;6.840;2023-04-19T03:41:32;102152.34;;;11.24;74.21
6020;BME280;3038;51.122;6.840;2023-04-19T03:43:58;102163.31;;;11.30;74.43
6020;BME280;3038;51.122;6.840;2023-04-19T03:46:24;102149.56;;;11.25;74.22
6020;BME280;3038;51.122;6.840;2023-04-19T03:48:49;102155.41;;;11.19;74.28
6020;BME280;3038;51.122;6.840;2023-04-19T03:51:16;102144.75;;;11.19;74.43
6020;BME280;3038;51.122;6.840;2023-04-19T03:53:42;102155.41;;;11.19;74.37
6020;BME280;3038;51.122;6.840;2023-04-19T03:56:07;102149.09;;;11.20;74.12
6020;BME280;3038;51.122;6.840;2023-04-19T03:58:33;102144.19;;;11.16;74.20
6020;BME280;3038;51.122;6.840;2023-04-19T04:00:59;102149.75;;;11.13;74.81
6020;BME280;3038;51.122;6.840;2023-04-19T04:03:25;102147.81;;;11.15;74.81
6020;BME280;3038;51.122;6.840;2023-04-19T04:05:51;102147.69;;;11.16;74.25
6020;BME280;3038;51.122;6.840;2023-04-19T04:08:18;102147.44;;;11.19;74.08
6020;BME280;3038;51.122;6.840;2023-04-19T04:10:44;102151.53;;;11.23;74.12
6020;BME280;3038;51.122;6.840;2023-04-19T04:13:09;102149.56;;;11.25;73.79
6020;BME280;3038;51.122;6.840;2023-04-19T04:15:34;102147.88;;;11.24;73.93
6020;BME280;3038;51.122;6.840;2023-04-19T04:18:00;102150.41;;;11.26;73.70
6020;BME280;3038;51.122;6.840;2023-04-19T04:20:26;102145.38;;;11.23;74.18
6020;BME280;3038;51.122;6.840;2023-04-19T04:22:53;102146.34;;;11.22;74.01
6020;BME280;3038;51.122;6.840;2023-04-19T04:25:19;102142.56;;;11.24;74.07
6020;BME280;3038;51.122;6.840;2023-04-19T04:27:45;102154.38;;;11.31;73.69
6020;BME280;3038;51.122;6.840;2023-04-19T04:30:11;102154.88;;;11.25;73.96
6020;BME280;3038;51.122;6.840;2023-04-19T04:32:37;102153.19;;;11.24;73.78
6020;BME280;3038;51.122;6.840;2023-04-19T04:35:06;102147.88;;;11.24;73.50
6020;BME280;3038;51.122;6.840;2023-04-19T04:37:32;102151.84;;;11.30;72.99
6020;BME280;3038;51.122;6.840;2023-04-19T04:40:02;102147.88;;;11.24;73.14
6020;BME280;3038;51.122;6.840;2023-04-19T04:42:30;102152.94;;;11.27;72.53
6020;BME280;3038;51.122;6.840;2023-04-19T04:44:57;102150.75;;;11.32;72.21
6020;BME280;3038;51.122;6.840;2023-04-19T04:47:23;102156.91;;;11.33;71.98
6020;BME280;3038;51.122;6.840;2023-04-19T04:49:48;102153.84;;;11.38;71.99
6020;BME280;3038;51.122;6.840;2023-04-19T04:52:14;102145.88;;;11.38;71.82
6020;BME280;3038;51.122;6.840;2023-04-19T04:54:39;102146.50;;;11.30;71.81
6020;BME280;3038;51.122;6.840;2023-04-19T04:57:05;102149.31;;;11.28;71.45
6020;BME280;3038;51.122;6.840;2023-04-19T04:59:30;102146.59;;;11.19;71.52
6020;BME280;3038;51.122;6.840;2023-04-19T05:01:56;102151.91;;;11.19;71.52
6020;BME280;3038;51.122;6.840;2023-04-19T05:04:21;102146.72;;;11.17;71.47
6020;BME280;3038;51.122;6.840;2023-04-19T05:06:49;102148.94;;;11.12;71.04
6020;BME280;3038;51.122;6.840;2023-04-19T05:09:14;102146.38;;;11.11;70.27
6020;BME280;3038;51.122;6.840;2023-04-19T05:11:39;102143.84;;;11.09;70.16
6020;BME280;3038;51.122;6.840;2023-04-19T05:14:05;102144.09;;;11.06;70.61
6020;BME280;3038;51.122;6.840;2023-04-19T05:16:31;102150.91;;;10.99;69.82
6020;BME280;3038;51.122;6.840;2023-04-19T05:18:57;102152.47;;;11.01;69.42
6020;BME280;3038;51.122;6.840;2023-04-19T05:21:22;102139.63;;;11.06;68.89
6020;BME280;3038;51.122;6.840;2023-04-19T05:23:50;102144.09;;;11.06;68.88
6020;BME280;3038;51.122;6.840;2023-04-19T05:26:17;102146.50;;;11.09;68.95
6020;BME280;3038;51.122;6.840;2023-04-19T05:28:43;102138.53;;;11.09;68.46
6020;BME280;3038;51.122;6.840;2023-04-19T05:31:09;102140.59;;;11.05;67.97
6020;BME280;3038;51.122;6.840;2023-04-19T05:33:34;102144.38;;;11.03;68.01
6020;BME280;3038;51.122;6.840;2023-04-19T05:36:00;102149.41;;;11.06;67.87
6020;BME280;3038;51.122;6.840;2023-04-19T05:38:25;102145.53;;;11.10;67.55
6020;BME280;3038;51.122;6.840;2023-04-19T05:40:50;102150.59;;;11.13;67.87
6020;BME280;3038;51.122;6.840;2023-04-19T05:43:16;102140.00;;;11.02;66.50
6020;BME280;3038;51.122;6.840;2023-04-19T05:45:41;102156.09;;;11.00;66.30
6020;BME280;3038;51.122;6.840;2023-04-19T05:48:07;102151.63;;;11.01;66.76
6020;BME280;3038;51.122;6.840;2023-04-19T05:50:32;102155.00;;;11.03;66.29
6020;BME280;3038;51.122;6.840;2023-04-19T05:52:59;102144.38;;;11.03;66.63
6020;BME280;3038;51.122;6.840;2023-04-19T05:55:24;102147.50;;;11.08;66.52
6020;BME280;3038;51.122;6.840;2023-04-19T05:57:49;102143.03;;;11.09;65.62
6020;BME280;3038;51.122;6.840;2023-04-19T06:00:15;102149.31;;;11.07;65.81
6020;BME280;3038;51.122;6.840;2023-04-19T06:02:41;102145.28;;;11.13;65.83
6020;BME280;3038;51.122;6.840;2023-04-19T06:05:08;102148.44;;;11.07;65.69
6020;BME280;3038;51.122;6.840;2023-04-19T06:07:34;102153.72;;;11.18;65.34
6020;BME280;3038;51.122;6.840;2023-04-19T06:09:59;102145.22;;;11.24;65.65
6020;BME280;3038;51.122;6.840;2023-04-19T06:12:27;102148.72;;;11.25;64.44
6020;BME280;3038;51.122;6.840;2023-04-19T06:14:53;102142.94;;;11.20;64.76
6020;BME280;3038;51.122;6.840;2023-04-19T06:17:18;102152.19;;;11.37;64.88
6020;BME280;3038;51.122;6.840;2023-04-19T06:19:48;102146.06;;;11.46;64.25
6020;BME280;3038;51.122;6.840;2023-04-19T06:22:14;102150.97;;;11.50;64.21
6020;BME280;3038;51.122;6.840;2023-04-19T06:24:39;102147.22;;;11.53;63.45
6020;BME280;3038;51.122;6.840;2023-04-19T06:27:04;102138.47;;;11.62;63.07
6020;BME280;3038;51.122;6.840;2023-04-19T06:29:30;102132.41;;;11.60;63.21
6020;BME280;3038;51.122;6.840;2023-04-19T06:31:55;102139.44;;;11.61;62.63
6020;BME280;3038;51.122;6.840;2023-04-19T06:34:21;102144.31;;;11.56;62.17
6020;BME280;3038;51.122;6.840;2023-04-19T06:36:46;102140.53;;;11.58;62.20
6020;BME280;3038;51.122;6.840;2023-04-19T06:39:11;102145.31;;;11.65;62.42
6020;BME280;3038;51.122;6.840;2023-04-19T06:41:39;102131.88;;;11.56;61.55
6020;BME280;3038;51.122;6.840;2023-04-19T06:44:04;102144.56;;;11.53;61.24
6020;BME280;3038;51.122;6.840;2023-04-19T06:46:29;102123.69;;;11.48;61.23
6020;BME280;3038;51.122;6.840;2023-04-19T06:48:55;102138.34;;;11.43;61.06
6020;BME280;3038;51.122;6.840;2023-04-19T06:51:20;102139.78;;;11.47;61.37
6020;BME280;3038;51.122;6.840;2023-04-19T06:53:46;102139.50;;;11.50;60.50
6020;BME280;3038;51.122;6.840;2023-04-19T06:56:11;102146.47;;;11.41;61.19
6020;BME280;3038;51.122;6.840;2023-04-19T06:58:40;102134.78;;;11.32;60.76
6020;BME280;3038;51.122;6.840;2023-04-19T07:01:07;102140.66;;;11.36;60.67
6020;BME280;3038;51.122;6.840;2023-04-19T07:03:33;102156.25;;;11.41;61.42
6020;BME280;3038;51.122;6.840;2023-04-19T07:05:58;102158.41;;;11.47;60.04
6020;BME280;3038;51.122;6.840;2023-04-19T07:08:24;102145.34;;;11.44;60.09
6020;BME280;3038;51.122;6.840;2023-04-19T07:10:49;102146.38;;;11.52;60.73
6020;BME280;3038;51.122;6.840;2023-04-19T07:13:15;102147.03;;;11.66;60.20
6020;BME280;3038;51.122;6.840;2023-04-19T07:15:40;102141.88;;;11.74;59.49
6020;BME280;3038;51.122;6.840;2023-04-19T07:18:06;102135.59;;;11.75;59.33
6020;BME280;3038;51.122;6.840;2023-04-19T07:20:31;102141.44;;;11.69;59.40
6020;BME280;3038;51.122;6.840;2023-04-19T07:23:00;102131.78;;;11.68;59.01
6020;BME280;3038;51.122;6.840;2023-04-19T07:25:25;102131.31;;;11.63;58.74
6020;BME280;3038;51.122;6.840;2023-04-19T07:27:52;102135.59;;;11.75;59.48
6020;BME280;3038;51.122;6.840;2023-04-19T07:30:18;102137.84;;;11.79;57.82
6020;BME280;3038;51.122;6.840;2023-04-19T07:32:45;102135.41;;;11.88;58.26
6020;BME280;3038;51.122;6.840;2023-04-19T07:35:11;102138.25;;;11.96;57.52
6020;BME280;3038;51.122;6.840;2023-04-19T07:37:36;102138.50;;;11.93;58.07
6020;BME280;3038;51.122;6.840;2023-04-19T07:40:02;102137.06;;;11.89;56.91
6020;BME280;3038;51.122;6.840;2023-04-19T07:42:29;102133.84;;;11.85;57.17
6020;BME280;3038;51.122;6.840;2023-04-19T07:44:55;102128.41;;;11.87;57.40
6020;BME280;3038;51.122;6.840;2023-04-19T07:47:20;102130.41;;;11.94;56.64
6020;BME280;3038;51.122;6.840;2023-04-19T07:49:46;102134.09;;;12.13;55.54
6020;BME280;3038;51.122;6.840;2023-04-19T07:52:11;102130.63;;;12.22;55.95
6020;BME280;3038;51.122;6.840;2023-04-19T07:54:37;102131.88;;;12.27;54.77
6020;BME280;3038;51.122;6.840;2023-04-19T07:57:03;102123.22;;;12.35;55.58
6020;BME280;3038;51.122;6.840;2023-04-19T07:59:29;102121.41;;;12.35;54.38
6020;BME280;3038;51.122;6.840;2023-04-19T08:01:57;102115.81;;;12.39;55.15
6020;BME280;3038;51.122;6.840;2023-04-19T08:04:22;102125.75;;;12.46;55.17
6020;BME280;3038;51.122;6.840;2023-04-19T08:06:48;102122.69;;;12.51;54.52
6020;BME280;3038;51.122;6.840;2023-04-19T08:09:15;102125.34;;;12.51;52.08
6020;BME280;3038;51.122;6.840;2023-04-19T08:11:41;102124.38;;;12.61;52.50
6020;BME280;3038;51.122;6.840;2023-04-19T08:14:07;102125.53;;;12.78;52.43
6020;BME280;3038;51.122;6.840;2023-04-19T08:16:32;102120.03;;;12.80;51.36
6020;BME280;3038;51.122;6.840;2023-04-19T08:18:58;102117.69;;;12.86;51.03
6020;BME280;3038;51.122;6.840;2023-04-19T08:21:26;102115.56;;;12.80;50.07
6020;BME280;3038;51.122;6.840;2023-04-19T08:23:51;102110.09;;;12.82;50.33
6020;BME280;3038;51.122;6.840;2023-04-19T08:26:16;102109.81;;;12.85;51.13
6020;BME280;3038;51.122;6.840;2023-04-19T08:28:42;102103.94;;;12.81;50.49
6020;BME280;3038;51.122;6.840;2023-04-19T08:31:07;102099.97;;;12.85;49.81
6020;BME280;3038;51.122;6.840;2023-04-19T08:33:33;102104.75;;;13.01;50.38
6020;BME280;3038;51.122;6.840;2023-04-19T08:36:00;102103.63;;;13.04;49.42
6020;BME280;3038;51.122;6.840;2023-04-19T08:38:26;102109.66;;;13.06;50.30
6020;BME280;3038;51.122;6.840;2023-04-19T08:40:52;102113.72;;;13.00;49.33
6020;BME280;3038;51.122;6.840;2023-04-19T08:43:19;102115.00;;;12.96;49.47
6020;BME280;3038;51.122;6.840;2023-04-19T08:45:46;102112.88;;;13.09;48.52
6020;BME280;3038;51.122;6.840;2023-04-19T08:48:14;102100.53;;;13.18;48.20
6020;BME280;3038;51.122;6.840;2023-04-19T08:50:43;102119.34;;;13.17;46.97
6020;BME280;3038;51.122;6.840;2023-04-19T08:53:10;102104.75;;;13.11;47.50
6020;BME280;3038;51.122;6.840;2023-04-19T08:55:40;102113.44;;;13.13;48.29
6020;BME280;3038;51.122;6.840;2023-04-19T08:58:06;102107.41;;;13.21;47.76
6020;BME280;3038;51.122;6.840;2023-04-19T09:00:32;102109.22;;;13.20;47.68
6020;BME280;3038;51.122;6.840;2023-04-19T09:02:58;102108.69;;;13.26;46.84
6020;BME280;3038;51.122;6.840;2023-04-19T09:05:24;102109.91;;;13.42;47.72
6020;BME280;3038;51.122;6.840;2023-04-19T09:07:50;102098.97;;;13.35;46.33
6020;BME280;3038;51.122;6.840;2023-04-19T09:10:17;102111.75;;;13.31;45.64
6020;BME280;3038;51.122;6.840;2023-04-19T09:12:59;102106.41;;;13.41;45.87
6020;BME280;3038;51.122;6.840;2023-04-19T09:15:40;102107.47;;;13.58;45.20
6020;BME280;3038;51.122;6.840;2023-04-19T09:18:08;102105.78;;;13.57;45.55
6020;BME280;3038;51.122;6.840;2023-04-19T09:20:39;102106.91;;;13.64;46.04
6020;BME280;3038;51.122;6.840;2023-04-19T09:23:06;102103.81;;;13.69;45.72
6020;BME280;3038;51.122;6.840;2023-04-19T09:25:32;102101.38;;;13.75;45.80
6020;BME280;3038;51.122;6.840;2023-04-19T09:28:11;102101.25;;;13.67;44.40
6020;BME280;3038;51.122;6.840;2023-04-19T09:30:37;102066.84;;;13.74;45.96
6020;BME280;3038;51.122;6.840;2023-04-19T09:33:03;102106.69;;;13.85;45.87
6020;BME280;3038;51.122;6.840;2023-04-19T09:35:49;102113.25;;;13.91;44.22
6020;BME280;3038;51.122;6.840;2023-04-19T09:38:15;102104.75;;;14.05;43.05
6020;BME280;3038;51.122;6.840;2023-04-19T09:40:41;102098.22;;;14.17;43.98
6020;BME280;3038;51.122;6.840;2023-04-19T09:43:07;102096.91;;;14.49;44.42
6020;BME280;3038;51.122;6.840;2023-04-19T09:45:45;102092.19;;;14.78;43.89
6020;BME280;3038;51.122;6.840;2023-04-19T09:48:13;102088.97;;;14.93;43.33
6020;BME280;3038;51.122;6.840;2023-04-19T09:53:21;102079.44;;;15.16;41.69
6020;BME280;3038;51.122;6.840;2023-04-19T09:55:48;102083.72;;;15.61;42.42
6020;BME280;3038;51.122;6.840;2023-04-19T09:58:14;102081.69;;;15.81;41.40
6020;BME280;3038;51.122;6.840;2023-04-19T10:00:40;102072.75;;;15.64;40.29
6020;BME280;3038;51.122;6.840;2023-04-19T10:03:09;102072.22;;;15.34;40.61
6020;BME280;3038;51.122;6.840;2023-04-19T10:05:38;102066.13;;;15.24;40.39
6020;BME280;3038;51.122;6.840;2023-04-19T10:08:07;102076.59;;;15.17;41.55
6020;BME280;3038;51.122;6.840;2023-04-19T10:10:33;102077.44;;;15.18;39.93
6020;BME280;3038;51.122;6.840;2023-04-19T10:13:02;102075.25;;;15.39;40.65
6020;BME280;3038;51.122;6.840;2023-04-19T10:15:31;102067.75;;;15.43;40.78
6020;BME280;3038;51.122;6.840;2023-04-19T10:17:57;102072.44;;;15.75;40.06
6020;BME280;3038;51.122;6.840;2023-04-19T10:20:26;102071.53;;;15.92;38.33
6020;BME280;3038;51.122;6.840;2023-04-19T10:22:55;102062.22;;;16.13;37.20
6020;BME280;3038;51.122;6.840;2023-04-19T10:25:27;102066.31;;;16.50;38.62
6020;BME280;3038;51.122;6.840;2023-04-19T10:27:56;102075.28;;;16.24;38.31
6020;BME280;3038;51.122;6.840;2023-04-19T10:30:22;102072.06;;;15.96;36.71
6020;BME280;3038;51.122;6.840;2023-04-19T10:32:56;102066.81;;;15.86;34.64
6020;BME280;3038;51.122;6.840;2023-04-19T10:35:35;102064.81;;;15.88;34.60
6020;BME280;3038;51.122;6.840;2023-04-19T10:38:08;102055.56;;;16.25;35.49
6020;BME280;3038;51.122;6.840;2023-04-19T10:43:15;102056.28;;;16.76;34.46
6020;BME280;3038;51.122;6.840;2023-04-19T10:45:44;102052.16;;;17.93;32.83
6020;BME280;3038;51.122;6.840;2023-04-19T10:50:57;102048.91;;;21.01;28.11
6020;BME280;3038;51.122;6.840;2023-04-19T10:53:42;102050.53;;;21.59;25.61
6020;BME280;3038;51.122;6.840;2023-04-19T10:56:08;102049.63;;;21.86;24.92
6020;BME280;3038;51.122;6.840;2023-04-19T11:01:44;102046.41;;;23.56;22.43
6020;BME280;3038;51.122;6.840;2023-04-19T11:11:48;102043.88;;;23.75;23.21
6020;BME280;3038;51.122;6.840;2023-04-19T11:14:14;102038.47;;;23.75;21.68
6020;BME280;3038;51.122;6.840;2023-04-19T11:16:41;102027.28;;;23.38;21.03
6020;BME280;3038;51.122;6.840;2023-04-19T11:19:06;102033.16;;;23.28;20.53
6020;BME280;3038;51.122;6.840;2023-04-19T11:21:31;102018.47;;;23.49;22.41
6020;BME280;3038;51.122;6.840;2023-04-19T11:24:10;102021.81;;;24.03;20.51
6020;BME280;3038;51.122;6.840;2023-04-19T11:26:36;102024.03;;;24.13;20.05
6020;BME280;3038;51.122;6.840;2023-04-19T11:29:02;102017.19;;;23.58;20.71
6020;BME280;3038;51.122;6.840;2023-04-19T11:31:31;102014.22;;;22.55;20.41
6020;BME280;3038;51.122;6.840;2023-04-19T11:33:58;102008.41;;;22.78;20.42
6020;BME280;3038;51.122;6.840;2023-04-19T11:36:24;102013.81;;;23.12;20.84
6020;BME280;3038;51.122;6.840;2023-04-19T11:38:51;101999.06;;;23.66;19.48
6020;BME280;3038;51.122;6.840;2023-04-19T11:41:17;102004.44;;;24.10;20.39
6020;BME280;3038;51.122;6.840;2023-04-19T11:43:42;101996.38;;;23.52;20.49
6020;BME280;3038;51.122;6.840;2023-04-19T11:46:11;101983.88;;;21.72;20.56
6020;BME280;3038;51.122;6.840;2023-04-19T11:48:38;101995.13;;;23.48;21.80
6020;BME280;3038;51.122;6.840;2023-04-19T11:51:04;101985.19;;;23.29;20.50
6020;BME280;3038;51.122;6.840;2023-04-19T11:53:31;101987.53;;;23.19;20.42
6020;BME280;3038;51.122;6.840;2023-04-19T11:56:02;101995.78;;;23.50;20.14
6020;BME280;3038;51.122;6.840;2023-04-19T11:58:30;101985.53;;;23.52;20.06
6020;BME280;3038;51.122;6.840;2023-04-19T12:03:40;101995.72;;;22.92;21.51
6020;BME280;3038;51.122;6.840;2023-04-19T12:06:11;101987.53;;;23.77;20.22
6020;BME280;3038;51.122;6.840;2023-04-19T12:08:50;101982.34;;;23.04;20.87
6020;BME280;3038;51.122;6.840;2023-04-19T12:11:17;101980.28;;;22.99;20.90
6020;BME280;3038;51.122;6.840;2023-04-19T12:13:43;101985.06;;;22.71;22.41
6020;BME280;3038;51.122;6.840;2023-04-19T12:16:10;101986.84;;;23.30;20.97
6020;BME280;3038;51.122;6.840;2023-04-19T12:21:33;101977.03;;;24.50;18.79
6020;BME280;3038;51.122;6.840;2023-04-19T12:24:00;101978.53;;;23.31;20.78
6020;BME280;3038;51.122;6.840;2023-04-19T12:26:29;101980.75;;;23.93;21.10
6020;BME280;3038;51.122;6.840;2023-04-19T12:28:55;101964.16;;;24.89;20.93
6020;BME280;3038;51.122;6.840;2023-04-19T12:31:20;101957.66;;;24.72;20.25
6020;BME280;3038;51.122;6.840;2023-04-19T12:33:47;101956.09;;;24.57;20.69
6020;BME280;3038;51.122;6.840;2023-04-19T12:36:13;101960.13;;;25.17;20.51
6020;BME280;3038;51.122;6.840;2023-04-19T12:38:38;101960.09;;;24.98;19.01
6020;BME280;3038;51.122;6.840;2023-04-19T12:41:04;101954.59;;;25.23;20.57
6020;BME280;3038;51.122;6.840;2023-04-19T12:43:30;101949.84;;;25.67;20.52
6020;BME280;3038;51.122;6.840;2023-04-19T12:45:58;101945.84;;;25.88;19.62
6020;BME280;3038;51.122;6.840;2023-04-19T12:48:25;101948.72;;;25.75;19.27
6020;BME280;3038;51.122;6.840;2023-04-19T12:50:50;101941.47;;;25.38;19.68
6020;BME280;3038;51.122;6.840;2023-04-19T12:53:16;101926.84;;;26.23;19.57
6020;BME280;3038;51.122;6.840;2023-04-19T12:55:41;101928.16;;;26.21;19.40
6020;BME280;3038;51.122;6.840;2023-04-19T12:58:12;101922.63;;;25.85;17.98
6020;BME280;3038;51.122;6.840;2023-04-19T13:00:40;101926.00;;;25.69;19.46
6020;BME280;3038;51.122;6.840;2023-04-19T13:03:05;101910.41;;;26.06;19.61
6020;BME280;3038;51.122;6.840;2023-04-19T13:05:31;101914.63;;;25.42;19.03
6020;BME280;3038;51.122;6.840;2023-04-19T13:07:56;101921.16;;;25.23;18.91
6020;BME280;3038;51.122;6.840;2023-04-19T13:10:22;101907.63;;;24.98;19.19
6020;BME280;3038;51.122;6.840;2023-04-19T13:12:47;101902.44;;;24.96;19.35
6020;BME280;3038;51.122;6.840;2023-04-19T13:15:14;101908.97;;;24.88;19.73
6020;BME280;3038;51.122;6.840;2023-04-19T13:17:42;101894.81;;;24.86;20.14
6020;BME280;3038;51.122;6.840;2023-04-19T13:20:10;101899.16;;;25.73;19.86
6020;BME280;3038;51.122;6.840;2023-04-19T13:22:35;101884.47;;;26.27;18.62
6020;BME280;3038;51.122;6.840;2023-04-19T13:25:01;101884.97;;;26.36;17.78
6020;BME280;3038;51.122;6.840;2023-04-19T13:27:26;101893.25;;;25.76;18.36
6020;BME280;3038;51.122;6.840;2023-04-19T13:29:54;101890.50;;;25.34;18.55